Terminal Aerodrome Forecast
Issued by NWS Cleveland, OH

Home | Current Version | Previous Version | Graphics & Text | Print | Product List | Glossary Off
Versions: 1 2 3 4 5 6 7 8 9 10 11 12 13 14 15 16 17 18 19 20 21 22 23

707
FTUS41 KCLE 281656 AAB
TAFERI
TAF AMD
KERI 281656Z 2817/2912 03005KT 2SM BR OVC005
      TEMPO 2818/2820 1/2SM FG VV002
     FM282200 35006KT P6SM OVC008
     FM290100 01006KT P6SM OVC012=

USA.gov is the U.S. government's official web portal to all federal, state and local government web resources and services.